sensor_id;sensor_type;location;lat;lon;timestamp;pressure;altitude;pressure_sealevel;temperature;humidity
35888;BME280;21990;42.540;23.496;2023-08-30T00:00:41;92658.94;;;18.44;100.00
35888;BME280;21990;42.540;23.496;2023-08-30T00:03:07;92660.00;;;18.39;100.00
35888;BME280;21990;42.540;23.496;2023-08-30T00:05:33;92671.44;;;18.29;100.00
35888;BME280;21990;42.540;23.496;2023-08-30T00:07:58;92674.44;;;18.31;100.00
35888;BME280;21990;42.540;23.496;2023-08-30T00:10:24;92672.91;;;18.40;100.00
35888;BME280;21990;42.540;23.496;2023-08-30T00:12:50;92670.94;;;18.42;100.00
35888;BME280;21990;42.540;23.496;2023-08-30T00:15:16;92650.50;;;18.46;100.00
35888;BME280;21990;42.540;23.496;2023-08-30T00:17:41;92638.03;;;18.51;100.00
35888;BME280;21990;42.540;23.496;2023-08-30T00:20:07;92644.81;;;18.56;100.00
35888;BME280;21990;42.540;23.496;2023-08-30T00:22:34;92658.44;;;18.57;100.00
35888;BME280;21990;42.540;23.496;2023-08-30T00:25:01;92666.41;;;18.59;100.00
35888;BME280;21990;42.540;23.496;2023-08-30T00:27:26;92659.22;;;18.48;100.00
35888;BME280;21990;42.540;23.496;2023-08-30T00:29:52;92650.66;;;18.48;100.00
35888;BME280;21990;42.540;23.496;2023-08-30T00:32:17;92654.72;;;18.45;100.00
35888;BME280;21990;42.540;23.496;2023-08-30T00:34:43;92651.09;;;18.44;100.00
35888;BME280;21990;42.540;23.496;2023-08-30T00:37:08;92673.63;;;18.50;100.00
35888;BME280;21990;42.540;23.496;2023-08-30T00:39:37;92668.81;;;18.53;100.00
35888;BME280;21990;42.540;23.496;2023-08-30T00:42:04;92664.31;;;18.49;100.00
35888;BME280;21990;42.540;23.496;2023-08-30T00:44:31;92678.13;;;18.53;100.00
35888;BME280;21990;42.540;23.496;2023-08-30T00:46:57;92676.63;;;18.52;100.00
35888;BME280;21990;42.540;23.496;2023-08-30T00:49:24;92673.94;;;18.54;100.00
35888;BME280;21990;42.540;23.496;2023-08-30T00:51:49;92671.94;;;18.57;100.00
35888;BME280;21990;42.540;23.496;2023-08-30T00:54:15;92667.47;;;18.54;100.00
35888;BME280;21990;42.540;23.496;2023-08-30T00:56:42;92664.63;;;18.54;100.00
35888;BME280;21990;42.540;23.496;2023-08-30T00:59:07;92663.72;;;18.51;100.00
35888;BME280;21990;42.540;23.496;2023-08-30T01:01:33;92675.28;;;18.53;100.00
35888;BME280;21990;42.540;23.496;2023-08-30T01:03:59;92669.72;;;18.55;100.00
35888;BME280;21990;42.540;23.496;2023-08-30T01:06:26;92679.91;;;18.58;100.00
35888;BME280;21990;42.540;23.496;2023-08-30T01:08:52;92697.34;;;18.53;100.00
35888;BME280;21990;42.540;23.496;2023-08-30T01:11:37;92696.16;;;18.46;100.00
35888;BME280;21990;42.540;23.496;2023-08-30T01:14:10;92681.88;;;18.46;100.00
35888;BME280;21990;42.540;23.496;2023-08-30T01:16:37;92685.66;;;18.39;100.00
35888;BME280;21990;42.540;23.496;2023-08-30T01:27:15;92685.38;;;18.35;100.00
35888;BME280;21990;42.540;23.496;2023-08-30T01:29:44;92689.88;;;18.38;100.00
35888;BME280;21990;42.540;23.496;2023-08-30T01:32:11;92683.56;;;18.39;100.00
35888;BME280;21990;42.540;23.496;2023-08-30T01:34:39;92681.88;;;18.46;100.00
35888;BME280;21990;42.540;23.496;2023-08-30T01:37:08;92685.34;;;18.54;100.00
35888;BME280;21990;42.540;23.496;2023-08-30T01:39:36;92683.06;;;18.53;100.00
35888;BME280;21990;42.540;23.496;2023-08-30T01:42:03;92674.69;;;18.55;100.00
35888;BME280;21990;42.540;23.496;2023-08-30T01:44:30;92673.00;;;18.61;100.00
35888;BME280;21990;42.540;23.496;2023-08-30T01:46:57;92683.69;;;18.51;100.00
35888;BME280;21990;42.540;23.496;2023-08-30T01:49:24;92673.19;;;18.54;100.00
35888;BME280;21990;42.540;23.496;2023-08-30T01:51:51;92683.06;;;18.62;100.00
35888;BME280;21990;42.540;23.496;2023-08-30T01:54:18;92678.56;;;18.59;100.00
35888;BME280;21990;42.540;23.496;2023-08-30T01:56:45;92673.00;;;18.61;100.00
35888;BME280;21990;42.540;23.496;2023-08-30T01:59:11;92679.44;;;18.62;100.00
35888;BME280;21990;42.540;23.496;2023-08-30T02:01:37;92677.81;;;18.59;100.00
35888;BME280;21990;42.540;23.496;2023-08-30T02:04:02;92677.19;;;18.60;100.00
35888;BME280;21990;42.540;23.496;2023-08-30T02:06:53;92672.88;;;18.59;100.00
35888;BME280;21990;42.540;23.496;2023-08-30T02:09:25;92675.09;;;18.61;100.00
35888;BME280;21990;42.540;23.496;2023-08-30T02:11:53;92665.38;;;18.54;100.00
35888;BME280;21990;42.540;23.496;2023-08-30T02:14:21;92666.56;;;18.51;100.00
35888;BME280;21990;42.540;23.496;2023-08-30T02:16:48;92665.53;;;18.46;100.00
35888;BME280;21990;42.540;23.496;2023-08-30T02:19:14;92674.22;;;18.48;100.00
35888;BME280;21990;42.540;23.496;2023-08-30T02:21:47;92677.72;;;18.37;100.00
35888;BME280;21990;42.540;23.496;2023-08-30T02:24:13;92681.78;;;18.34;100.00
35888;BME280;21990;42.540;23.496;2023-08-30T02:26:39;92674.91;;;18.28;100.00
35888;BME280;21990;42.540;23.496;2023-08-30T02:29:05;92672.06;;;18.28;100.00
35888;BME280;21990;42.540;23.496;2023-08-30T02:31:30;92671.91;;;18.26;100.00
35888;BME280;21990;42.540;23.496;2023-08-30T02:33:56;92662.13;;;18.29;100.00
35888;BME280;21990;42.540;23.496;2023-08-30T02:36:21;92672.81;;;18.28;100.00
35888;BME280;21990;42.540;23.496;2023-08-30T02:38:47;92677.00;;;18.27;99.88
35888;BME280;21990;42.540;23.496;2023-08-30T02:41:12;92684.81;;;18.27;99.27
35888;BME280;21990;42.540;23.496;2023-08-30T02:43:38;92682.41;;;18.23;98.50
35888;BME280;21990;42.540;23.496;2023-08-30T02:46:03;92678.06;;;18.22;98.70
35888;BME280;21990;42.540;23.496;2023-08-30T02:48:33;92675.84;;;18.21;98.56
35888;BME280;21990;42.540;23.496;2023-08-30T02:50:59;92687.53;;;18.15;98.02
35888;BME280;21990;42.540;23.496;2023-08-30T02:53:25;92678.09;;;18.13;98.03
35888;BME280;21990;42.540;23.496;2023-08-30T02:55:50;92677.81;;;18.09;97.87
35888;BME280;21990;42.540;23.496;2023-08-30T02:58:16;92679.00;;;18.06;97.64
35888;BME280;21990;42.540;23.496;2023-08-30T03:00:42;92689.22;;;17.99;97.37
35888;BME280;21990;42.540;23.496;2023-08-30T03:03:08;92686.06;;;17.95;97.27
35888;BME280;21990;42.540;23.496;2023-08-30T03:05:33;92679.03;;;17.86;97.49
35888;BME280;21990;42.540;23.496;2023-08-30T03:07:59;92682.22;;;17.81;97.20
35888;BME280;21990;42.540;23.496;2023-08-30T03:10:24;92682.38;;;17.73;97.44
35888;BME280;21990;42.540;23.496;2023-08-30T03:12:50;92680.56;;;17.68;98.15
35888;BME280;21990;42.540;23.496;2023-08-30T03:15:16;92682.66;;;17.68;97.96
35888;BME280;21990;42.540;23.496;2023-08-30T03:17:42;92683.72;;;17.63;98.44
35888;BME280;21990;42.540;23.496;2023-08-30T03:20:07;92681.47;;;17.61;98.05
35888;BME280;21990;42.540;23.496;2023-08-30T03:22:33;92684.03;;;17.57;98.04
35888;BME280;21990;42.540;23.496;2023-08-30T03:24:58;92675.91;;;17.53;98.38
35888;BME280;21990;42.540;23.496;2023-08-30T03:27:25;92688.06;;;17.54;98.34
35888;BME280;21990;42.540;23.496;2023-08-30T03:29:50;92691.50;;;17.43;98.20
35888;BME280;21990;42.540;23.496;2023-08-30T03:32:17;92683.38;;;17.39;97.89
35888;BME280;21990;42.540;23.496;2023-08-30T03:34:47;92673.94;;;17.37;97.39
35888;BME280;21990;42.540;23.496;2023-08-30T03:37:15;92678.75;;;17.34;97.35
35888;BME280;21990;42.540;23.496;2023-08-30T03:39:41;92681.44;;;17.32;97.13
35888;BME280;21990;42.540;23.496;2023-08-30T03:42:07;92678.59;;;17.23;97.21
35888;BME280;21990;42.540;23.496;2023-08-30T03:44:32;92671.25;;;17.20;97.83
35888;BME280;21990;42.540;23.496;2023-08-30T03:46:58;92664.81;;;17.19;97.14
35888;BME280;21990;42.540;23.496;2023-08-30T03:49:23;92667.66;;;17.19;97.00
35888;BME280;21990;42.540;23.496;2023-08-30T03:51:49;92669.00;;;17.18;96.80
35888;BME280;21990;42.540;23.496;2023-08-30T03:54:15;92675.91;;;17.15;96.58
35888;BME280;21990;42.540;23.496;2023-08-30T03:56:43;92683.53;;;17.13;97.05
35888;BME280;21990;42.540;23.496;2023-08-30T03:59:09;92676.00;;;16.98;96.73
35888;BME280;21990;42.540;23.496;2023-08-30T04:01:35;92671.97;;;17.01;96.73
35888;BME280;21990;42.540;23.496;2023-08-30T04:04:01;92678.41;;;17.01;97.04
35888;BME280;21990;42.540;23.496;2023-08-30T04:06:26;92684.56;;;16.98;97.45
35888;BME280;21990;42.540;23.496;2023-08-30T04:08:52;92673.63;;;16.94;98.01
35888;BME280;21990;42.540;23.496;2023-08-30T04:11:18;92695.03;;;16.95;98.08
35888;BME280;21990;42.540;23.496;2023-08-30T04:13:43;92691.44;;;16.95;97.87
35888;BME280;21990;42.540;23.496;2023-08-30T04:16:09;92692.47;;;16.80;98.79
35888;BME280;21990;42.540;23.496;2023-08-30T04:18:34;92698.59;;;16.86;99.37
35888;BME280;21990;42.540;23.496;2023-08-30T04:21:00;92706.56;;;16.88;99.40
35888;BME280;21990;42.540;23.496;2023-08-30T04:23:30;92720.16;;;16.89;99.24
35888;BME280;21990;42.540;23.496;2023-08-30T04:25:56;92724.25;;;16.96;100.00
35888;BME280;21990;42.540;23.496;2023-08-30T04:28:21;92718.69;;;16.88;100.00
35888;BME280;21990;42.540;23.496;2023-08-30T04:30:47;92723.78;;;16.90;100.00
35888;BME280;21990;42.540;23.496;2023-08-30T04:33:13;92728.88;;;17.01;100.00
35888;BME280;21990;42.540;23.496;2023-08-30T04:35:38;92728.75;;;17.08;100.00
35888;BME280;21990;42.540;23.496;2023-08-30T04:38:04;92736.75;;;17.20;100.00
35888;BME280;21990;42.540;23.496;2023-08-30T04:40:31;92739.88;;;17.24;100.00
35888;BME280;21990;42.540;23.496;2023-08-30T04:43:00;92745.44;;;17.31;100.00
35888;BME280;21990;42.540;23.496;2023-08-30T04:45:26;92735.41;;;17.30;100.00
35888;BME280;21990;42.540;23.496;2023-08-30T04:47:53;92749.31;;;17.36;100.00
35888;BME280;21990;42.540;23.496;2023-08-30T04:50:18;92747.25;;;17.46;100.00
35888;BME280;21990;42.540;23.496;2023-08-30T04:52:44;92744.59;;;17.58;100.00
35888;BME280;21990;42.540;23.496;2023-08-30T04:55:10;92739.03;;;17.60;100.00
35888;BME280;21990;42.540;23.496;2023-08-30T04:57:35;92734.41;;;17.74;100.00
35888;BME280;21990;42.540;23.496;2023-08-30T05:00:01;92733.34;;;17.79;100.00
35888;BME280;21990;42.540;23.496;2023-08-30T05:02:30;92737.53;;;17.87;100.00
35888;BME280;21990;42.540;23.496;2023-08-30T05:04:56;92736.78;;;17.96;100.00
35888;BME280;21990;42.540;23.496;2023-08-30T05:07:21;92744.88;;;18.00;99.31
35888;BME280;21990;42.540;23.496;2023-08-30T05:09:47;92751.47;;;18.12;98.63
35888;BME280;21990;42.540;23.496;2023-08-30T05:12:13;92753.25;;;18.17;98.08
35888;BME280;21990;42.540;23.496;2023-08-30T05:14:38;92755.06;;;18.22;97.61
35888;BME280;21990;42.540;23.496;2023-08-30T05:17:06;92748.88;;;18.26;98.73
35888;BME280;21990;42.540;23.496;2023-08-30T05:19:31;92755.81;;;18.23;98.42
35888;BME280;21990;42.540;23.496;2023-08-30T05:21:57;92754.72;;;18.37;98.41
35888;BME280;21990;42.540;23.496;2023-08-30T05:24:22;92751.38;;;18.50;98.42
35888;BME280;21990;42.540;23.496;2023-08-30T05:26:48;92750.78;;;18.52;97.51
35888;BME280;21990;42.540;23.496;2023-08-30T05:29:14;92745.19;;;18.64;98.95
35888;BME280;21990;42.540;23.496;2023-08-30T05:31:41;92744.44;;;19.04;100.00
35888;BME280;21990;42.540;23.496;2023-08-30T05:34:06;92746.13;;;19.28;97.29
35888;BME280;21990;42.540;23.496;2023-08-30T05:36:32;92744.09;;;19.40;95.49
35888;BME280;21990;42.540;23.496;2023-08-30T05:38:57;92726.41;;;19.96;96.75
35888;BME280;21990;42.540;23.496;2023-08-30T05:41:23;92723.28;;;20.57;93.87
35888;BME280;21990;42.540;23.496;2023-08-30T05:43:48;92724.28;;;20.73;93.87
35888;BME280;21990;42.540;23.496;2023-08-30T05:46:14;92706.38;;;21.31;93.86
35888;BME280;21990;42.540;23.496;2023-08-30T05:48:41;92718.00;;;21.82;91.27
35888;BME280;21990;42.540;23.496;2023-08-30T05:51:07;92718.47;;;22.52;87.36
35888;BME280;21990;42.540;23.496;2023-08-30T05:53:32;92718.66;;;23.06;82.27
35888;BME280;21990;42.540;23.496;2023-08-30T05:55:58;92726.66;;;23.22;84.87
35888;BME280;21990;42.540;23.496;2023-08-30T05:58:23;92728.81;;;23.76;78.12
35888;BME280;21990;42.540;23.496;2023-08-30T06:00:49;92726.63;;;24.03;77.42
35888;BME280;21990;42.540;23.496;2023-08-30T06:03:14;92730.69;;;23.98;76.68
35888;BME280;21990;42.540;23.496;2023-08-30T06:05:40;92733.78;;;24.02;78.09
35888;BME280;21990;42.540;23.496;2023-08-30T06:08:06;92726.38;;;24.56;74.81
35888;BME280;21990;42.540;23.496;2023-08-30T06:10:33;92727.47;;;24.78;73.42
35888;BME280;21990;42.540;23.496;2023-08-30T06:12:59;92735.06;;;25.01;72.86
35888;BME280;21990;42.540;23.496;2023-08-30T06:15:24;92732.47;;;25.07;66.48
35888;BME280;21990;42.540;23.496;2023-08-30T06:17:53;92724.66;;;25.41;67.20
35888;BME280;21990;42.540;23.496;2023-08-30T06:20:19;92735.38;;;25.54;67.92
35888;BME280;21990;42.540;23.496;2023-08-30T06:22:44;92738.50;;;25.76;65.06
35888;BME280;21990;42.540;23.496;2023-08-30T06:25:10;92738.59;;;25.93;63.09
35888;BME280;21990;42.540;23.496;2023-08-30T06:27:41;92737.72;;;26.07;61.25
35888;BME280;21990;42.540;23.496;2023-08-30T06:30:08;92722.59;;;26.24;59.91
35888;BME280;21990;42.540;23.496;2023-08-30T06:32:34;92724.53;;;26.53;61.11
35888;BME280;21990;42.540;23.496;2023-08-30T06:34:59;92726.16;;;26.58;59.68
35888;BME280;21990;42.540;23.496;2023-08-30T06:37:25;92731.88;;;26.73;60.09
35888;BME280;21990;42.540;23.496;2023-08-30T06:39:51;92738.47;;;26.40;56.53
35888;BME280;21990;42.540;23.496;2023-08-30T06:42:16;92729.69;;;26.38;57.36
35888;BME280;21990;42.540;23.496;2023-08-30T06:44:42;92735.00;;;26.11;60.21
35888;BME280;21990;42.540;23.496;2023-08-30T06:47:07;92731.56;;;26.14;59.50
35888;BME280;21990;42.540;23.496;2023-08-30T06:49:33;92728.56;;;26.46;57.50
35888;BME280;21990;42.540;23.496;2023-08-30T06:51:59;92729.50;;;26.85;58.08
35888;BME280;21990;42.540;23.496;2023-08-30T06:54:28;92735.88;;;27.00;57.93
35888;BME280;21990;42.540;23.496;2023-08-30T06:56:59;92737.50;;;26.87;54.90
35888;BME280;21990;42.540;23.496;2023-08-30T06:59:28;92737.25;;;26.99;60.84
35888;BME280;21990;42.540;23.496;2023-08-30T07:01:54;92732.66;;;27.47;56.92
35888;BME280;21990;42.540;23.496;2023-08-30T07:04:21;92739.78;;;27.63;52.98
35888;BME280;21990;42.540;23.496;2023-08-30T07:06:47;92739.72;;;27.81;51.79
35888;BME280;21990;42.540;23.496;2023-08-30T07:09:12;92740.38;;;27.79;53.62
35888;BME280;21990;42.540;23.496;2023-08-30T07:11:38;92733.91;;;28.40;51.36
35888;BME280;21990;42.540;23.496;2023-08-30T07:14:04;92730.47;;;28.46;52.44
35888;BME280;21990;42.540;23.496;2023-08-30T07:16:30;92739.63;;;28.60;49.08
35888;BME280;21990;42.540;23.496;2023-08-30T07:18:58;92729.53;;;28.39;49.51
35888;BME280;21990;42.540;23.496;2023-08-30T07:21:26;92740.38;;;28.39;49.66
35888;BME280;21990;42.540;23.496;2023-08-30T07:23:52;92741.22;;;28.85;50.84
35888;BME280;21990;42.540;23.496;2023-08-30T07:26:17;92739.34;;;28.93;50.62
35888;BME280;21990;42.540;23.496;2023-08-30T07:28:43;92727.66;;;28.91;46.44
35888;BME280;21990;42.540;23.496;2023-08-30T07:31:08;92733.84;;;29.03;48.40
35888;BME280;21990;42.540;23.496;2023-08-30T07:33:35;92721.19;;;28.93;46.40
35888;BME280;21990;42.540;23.496;2023-08-30T07:36:01;92720.22;;;29.08;49.83
35888;BME280;21990;42.540;23.496;2023-08-30T07:38:26;92715.81;;;29.07;46.93
35888;BME280;21990;42.540;23.496;2023-08-30T07:40:53;92708.72;;;28.88;47.67
35888;BME280;21990;42.540;23.496;2023-08-30T07:43:19;92709.91;;;29.03;48.04
35888;BME280;21990;42.540;23.496;2023-08-30T07:45:45;92708.31;;;28.76;48.95
35888;BME280;21990;42.540;23.496;2023-08-30T07:48:10;92713.97;;;28.94;48.09
35888;BME280;21990;42.540;23.496;2023-08-30T07:50:40;92701.50;;;28.89;46.81
35888;BME280;21990;42.540;23.496;2023-08-30T07:53:06;92710.53;;;28.77;49.80
35888;BME280;21990;42.540;23.496;2023-08-30T07:55:31;92699.13;;;28.84;49.53
35888;BME280;21990;42.540;23.496;2023-08-30T07:57:57;92707.97;;;28.88;49.52
35888;BME280;21990;42.540;23.496;2023-08-30T08:00:22;92707.22;;;28.87;48.81
35888;BME280;21990;42.540;23.496;2023-08-30T08:02:48;92720.91;;;28.85;49.77
35888;BME280;21990;42.540;23.496;2023-08-30T08:05:14;92714.63;;;29.14;49.40
35888;BME280;21990;42.540;23.496;2023-08-30T08:07:45;92711.06;;;28.94;46.76
35888;BME280;21990;42.540;23.496;2023-08-30T08:10:11;92718.25;;;29.14;47.34
35888;BME280;21990;42.540;23.496;2023-08-30T08:12:37;92711.91;;;29.20;48.76
35888;BME280;21990;42.540;23.496;2023-08-30T08:15:03;92721.22;;;29.16;49.65
35888;BME280;21990;42.540;23.496;2023-08-30T08:17:29;92728.31;;;29.11;49.43
35888;BME280;21990;42.540;23.496;2023-08-30T08:19:54;92720.28;;;29.10;48.30
35888;BME280;21990;42.540;23.496;2023-08-30T08:22:22;92712.75;;;29.01;48.80
35888;BME280;21990;42.540;23.496;2023-08-30T08:24:48;92720.31;;;28.88;48.10
35888;BME280;21990;42.540;23.496;2023-08-30T08:27:17;92720.53;;;28.72;50.13
35888;BME280;21990;42.540;23.496;2023-08-30T08:29:43;92713.38;;;28.75;47.98
35888;BME280;21990;42.540;23.496;2023-08-30T08:32:08;92725.22;;;28.62;47.44
35888;BME280;21990;42.540;23.496;2023-08-30T08:34:34;92729.72;;;28.45;48.37
35888;BME280;21990;42.540;23.496;2023-08-30T08:36:59;92726.53;;;28.37;49.29
35888;BME280;21990;42.540;23.496;2023-08-30T08:39:25;92722.19;;;28.36;48.86
35888;BME280;21990;42.540;23.496;2023-08-30T08:41:51;92726.94;;;28.27;50.55
35888;BME280;21990;42.540;23.496;2023-08-30T08:44:20;92722.63;;;28.28;49.40
35888;BME280;21990;42.540;23.496;2023-08-30T08:46:48;92733.84;;;28.18;47.42
35888;BME280;21990;42.540;23.496;2023-08-30T08:49:15;92724.22;;;28.12;49.79
35888;BME280;21990;42.540;23.496;2023-08-30T08:51:45;92717.16;;;27.97;48.76
35888;BME280;21990;42.540;23.496;2023-08-30T08:54:11;92719.38;;;27.79;49.58
35888;BME280;21990;42.540;23.496;2023-08-30T08:56:38;92721.09;;;27.66;49.41
35888;BME280;21990;42.540;23.496;2023-08-30T08:59:05;92729.66;;;27.45;49.93
35888;BME280;21990;42.540;23.496;2023-08-30T09:01:34;92722.66;;;27.32;49.60
35888;BME280;21990;42.540;23.496;2023-08-30T09:04:07;92727.91;;;27.18;50.47
35888;BME280;21990;42.540;23.496;2023-08-30T09:06:33;92719.16;;;26.98;51.71
35888;BME280;21990;42.540;23.496;2023-08-30T09:08:59;92733.63;;;26.98;55.28
35888;BME280;21990;42.540;23.496;2023-08-30T09:11:25;92733.34;;;26.74;53.78
35888;BME280;21990;42.540;23.496;2023-08-30T09:13:51;92732.09;;;26.62;52.84
35888;BME280;21990;42.540;23.496;2023-08-30T09:16:16;92733.50;;;26.43;54.06
35888;BME280;21990;42.540;23.496;2023-08-30T09:18:42;92733.00;;;26.31;54.57
35888;BME280;21990;42.540;23.496;2023-08-30T09:21:09;92729.47;;;26.32;54.59
35888;BME280;21990;42.540;23.496;2023-08-30T09:23:35;92725.81;;;26.32;54.28
35888;BME280;21990;42.540;23.496;2023-08-30T09:26:02;92730.09;;;26.31;54.14
35888;BME280;21990;42.540;23.496;2023-08-30T09:28:29;92736.09;;;26.19;54.55
35888;BME280;21990;42.540;23.496;2023-08-30T09:30:57;92730.63;;;26.10;56.72
35888;BME280;21990;42.540;23.496;2023-08-30T09:33:31;92735.09;;;26.13;56.91
35888;BME280;21990;42.540;23.496;2023-08-30T09:35:58;92739.28;;;26.10;57.02
35888;BME280;21990;42.540;23.496;2023-08-30T09:38:24;92744.97;;;26.08;58.33
35888;BME280;21990;42.540;23.496;2023-08-30T09:40:50;92737.72;;;26.07;57.43
35888;BME280;21990;42.540;23.496;2023-08-30T09:43:19;92735.72;;;26.11;54.62
35888;BME280;21990;42.540;23.496;2023-08-30T09:45:50;92736.63;;;25.98;59.49
35888;BME280;21990;42.540;23.496;2023-08-30T09:48:27;92740.34;;;26.01;61.25
35888;BME280;21990;42.540;23.496;2023-08-30T09:50:54;92734.66;;;26.03;59.84
35888;BME280;21990;42.540;23.496;2023-08-30T09:53:25;92739.50;;;25.98;58.26
35888;BME280;21990;42.540;23.496;2023-08-30T09:55:53;92733.44;;;25.92;58.66
35888;BME280;21990;42.540;23.496;2023-08-30T09:58:21;92727.44;;;25.86;58.28
35888;BME280;21990;42.540;23.496;2023-08-30T10:00:48;92719.59;;;25.88;60.28
35888;BME280;21990;42.540;23.496;2023-08-30T10:03:15;92720.91;;;25.85;60.02
35888;BME280;21990;42.540;23.496;2023-08-30T10:05:44;92724.72;;;25.90;58.63
35888;BME280;21990;42.540;23.496;2023-08-30T10:08:14;92719.19;;;25.96;57.68
35888;BME280;21990;42.540;23.496;2023-08-30T10:10:40;92714.94;;;26.15;61.28
35888;BME280;21990;42.540;23.496;2023-08-30T10:13:06;92719.63;;;26.39;58.03
35888;BME280;21990;42.540;23.496;2023-08-30T10:15:33;92725.44;;;26.57;58.61
35888;BME280;21990;42.540;23.496;2023-08-30T10:18:01;92716.03;;;26.57;54.12
35888;BME280;21990;42.540;23.496;2023-08-30T10:20:28;92713.97;;;26.41;53.54
35888;BME280;21990;42.540;23.496;2023-08-30T10:22:55;92722.06;;;26.45;59.87
35888;BME280;21990;42.540;23.496;2023-08-30T10:25:26;92722.13;;;26.47;61.26
35888;BME280;21990;42.540;23.496;2023-08-30T10:27:55;92712.06;;;26.48;60.54
35888;BME280;21990;42.540;23.496;2023-08-30T10:30:21;92717.84;;;26.48;63.46
35888;BME280;21990;42.540;23.496;2023-08-30T10:32:48;92708.59;;;26.52;60.86
35888;BME280;21990;42.540;23.496;2023-08-30T10:35:16;92703.63;;;26.54;57.59
35888;BME280;21990;42.540;23.496;2023-08-30T10:37:57;92699.19;;;26.69;61.71
35888;BME280;21990;42.540;23.496;2023-08-30T10:40:24;92706.84;;;26.80;55.51
35888;BME280;21990;42.540;23.496;2023-08-30T10:43:03;92702.91;;;26.89;56.12
35888;BME280;21990;42.540;23.496;2023-08-30T10:45:31;92691.59;;;26.95;52.73
35888;BME280;21990;42.540;23.496;2023-08-30T10:47:58;92696.84;;;27.01;51.53
35888;BME280;21990;42.540;23.496;2023-08-30T10:50:29;92688.13;;;26.99;49.64
35888;BME280;21990;42.540;23.496;2023-08-30T10:52:56;92692.88;;;27.10;57.84
35888;BME280;21990;42.540;23.496;2023-08-30T10:55:25;92698.81;;;27.14;62.30
35888;BME280;21990;42.540;23.496;2023-08-30T10:58:03;92696.66;;;27.14;52.90
35888;BME280;21990;42.540;23.496;2023-08-30T11:00:32;92695.03;;;27.09;55.19
35888;BME280;21990;42.540;23.496;2023-08-30T11:02:59;92698.06;;;27.13;56.82
35888;BME280;21990;42.540;23.496;2023-08-30T11:05:25;92698.03;;;27.31;60.11
35888;BME280;21990;42.540;23.496;2023-08-30T11:07:52;92690.81;;;27.32;52.41
35888;BME280;21990;42.540;23.496;2023-08-30T11:10:19;92692.03;;;27.45;51.24
35888;BME280;21990;42.540;23.496;2023-08-30T11:12:46;92686.66;;;27.55;50.74
35888;BME280;21990;42.540;23.496;2023-08-30T11:15:14;92688.50;;;27.46;52.84
35888;BME280;21990;42.540;23.496;2023-08-30T11:17:41;92688.25;;;27.40;55.28
35888;BME280;21990;42.540;23.496;2023-08-30T11:20:09;92680.16;;;27.36;58.36
35888;BME280;21990;42.540;23.496;2023-08-30T11:22:44;92682.44;;;27.40;53.90
35888;BME280;21990;42.540;23.496;2023-08-30T11:25:10;92682.53;;;27.42;48.79
35888;BME280;21990;42.540;23.496;2023-08-30T11:27:39;92677.25;;;27.36;48.26
35888;BME280;21990;42.540;23.496;2023-08-30T11:30:06;92679.25;;;27.32;47.36
35888;BME280;21990;42.540;23.496;2023-08-30T11:32:33;92667.84;;;27.36;51.65
35888;BME280;21990;42.540;23.496;2023-08-30T11:35:00;92658.06;;;27.45;56.34
35888;BME280;21990;42.540;23.496;2023-08-30T11:37:27;92662.63;;;27.50;54.32
35888;BME280;21990;42.540;23.496;2023-08-30T11:39:54;92657.97;;;27.43;47.91
35888;BME280;21990;42.540;23.496;2023-08-30T11:42:21;92659.41;;;27.42;48.50
35888;BME280;21990;42.540;23.496;2023-08-30T11:44:47;92658.41;;;27.35;49.23
35888;BME280;21990;42.540;23.496;2023-08-30T11:47:33;92657.13;;;27.58;55.13
35888;BME280;21990;42.540;23.496;2023-08-30T11:49:59;92649.16;;;27.78;53.28
35888;BME280;21990;42.540;23.496;2023-08-30T11:52:26;92644.69;;;27.95;50.78
35888;BME280;21990;42.540;23.496;2023-08-30T11:54:52;92641.94;;;27.99;49.69
35888;BME280;21990;42.540;23.496;2023-08-30T11:57:18;92650.91;;;28.07;47.85
35888;BME280;21990;42.540;23.496;2023-08-30T11:59:44;92649.00;;;27.74;47.05
35888;BME280;21990;42.540;23.496;2023-08-30T12:02:13;92655.91;;;27.85;53.66
35888;BME280;21990;42.540;23.496;2023-08-30T12:04:44;92639.81;;;27.80;55.77
35888;BME280;21990;42.540;23.496;2023-08-30T12:07:23;92633.44;;;27.64;50.13
35888;BME280;21990;42.540;23.496;2023-08-30T12:09:49;92638.44;;;27.61;54.97
35888;BME280;21990;42.540;23.496;2023-08-30T12:12:15;92641.22;;;27.59;57.02
35888;BME280;21990;42.540;23.496;2023-08-30T12:14:41;92640.38;;;27.55;56.37
35888;BME280;21990;42.540;23.496;2023-08-30T12:17:08;92638.72;;;27.50;48.99
35888;BME280;21990;42.540;23.496;2023-08-30T12:19:34;92632.09;;;27.47;53.64
35888;BME280;21990;42.540;23.496;2023-08-30T12:22:09;92628.41;;;27.64;54.85
35888;BME280;21990;42.540;23.496;2023-08-30T12:24:44;92624.53;;;27.77;50.97
35888;BME280;21990;42.540;23.496;2023-08-30T12:27:10;92620.28;;;27.80;57.59
35888;BME280;21990;42.540;23.496;2023-08-30T12:29:35;92615.16;;;27.79;46.27
35888;BME280;21990;42.540;23.496;2023-08-30T12:32:01;92624.16;;;27.67;49.12
35888;BME280;21990;42.540;23.496;2023-08-30T12:34:27;92616.75;;;27.62;50.35
35888;BME280;21990;42.540;23.496;2023-08-30T12:36:52;92611.78;;;27.65;51.07
35888;BME280;21990;42.540;23.496;2023-08-30T12:39:19;92616.31;;;27.70;53.41
35888;BME280;21990;42.540;23.496;2023-08-30T12:41:44;92614.28;;;27.74;49.55
35888;BME280;21990;42.540;23.496;2023-08-30T12:44:10;92599.47;;;27.86;51.66
35888;BME280;21990;42.540;23.496;2023-08-30T12:46:35;92608.38;;;27.92;48.55
35888;BME280;21990;42.540;23.496;2023-08-30T12:49:01;92606.41;;;27.77;51.35
35888;BME280;21990;42.540;23.496;2023-08-30T12:51:26;92614.59;;;27.63;45.95
35888;BME280;21990;42.540;23.496;2023-08-30T12:53:52;92618.22;;;27.63;47.39